^^
TXWeather Station Historical Data
Daily Summary for April 18, 2022 Units:  English    Metric   Both
Daily Weekly Monthly Yearly Custom
  High: Low: Average:
Temperature: 80.0 °F 62.0 °F 71.5 °F
Dew Point: 70.0 °F 53.0 °F 59.4 °F
Humidity: 85% 48% 67%
Wind Speed: 20mph 2mph 9.1mph
Wind Gust: 20mph - -
Wind- - ENE
Pressure: 30.2 in 30.0 in -
Precipitation: 0.000 in    
Historical Graphs
 
 
Tabular Data for April 18, 2022
Time Temperature Dew Point Pressure Wind Wind Speed Wind Gust Humidity Rainfall Rate (Hourly) solar
00:04 77.0 °F 70.0 °F 30.0 in NW 3 mph 3 mph 80% 0.000 in 0.00 W/m2
00:09 77.0 °F 70.0 °F 30.0 in NW 3 mph 3 mph 80% 0.000 in 0.00 W/m2
00:14 77.0 °F 70.0 °F 30.0 in NW 3 mph 3 mph 80% 0.000 in 0.00 W/m2
00:19 77.0 °F 70.0 °F 30.0 in NW 3 mph 3 mph 80% 0.000 in 0.00 W/m2
00:24 77.0 °F 70.0 °F 30.0 in NW 4 mph 5 mph 80% 0.000 in 0.00 W/m2
00:29 77.0 °F 70.0 °F 30.0 in NW 3 mph 4 mph 80% 0.000 in 0.00 W/m2
00:34 77.0 °F 70.0 °F 30.0 in NNW 4 mph 4 mph 80% 0.000 in 0.00 W/m2
00:39 77.0 °F 70.0 °F 30.0 in North 4 mph 5 mph 80% 0.000 in 0.00 W/m2
00:44 77.0 °F 70.0 °F 30.0 in North 6 mph 6 mph 80% 0.000 in 0.00 W/m2
00:49 77.0 °F 70.0 °F 30.0 in North 9 mph 9 mph 80% 0.000 in 0.00 W/m2
00:54 77.0 °F 70.0 °F 30.0 in NNW 11 mph 11 mph 80% 0.000 in 0.00 W/m2
00:59 77.0 °F 70.0 °F 30.0 in North 9 mph 11 mph 80% 0.000 in 0.00 W/m2
01:04 76.0 °F 69.0 °F 30.0 in North 9 mph 11 mph 79% 0.000 in 0.00 W/m2
01:09 76.0 °F 69.0 °F 30.0 in NNW 9 mph 11 mph 79% 0.000 in 0.00 W/m2
01:14 76.0 °F 68.0 °F 30.0 in North 15 mph 15 mph 78% 0.000 in 0.00 W/m2
01:19 76.0 °F 68.0 °F 30.0 in North 8 mph 15 mph 78% 0.000 in 0.00 W/m2
01:24 75.0 °F 68.0 °F 30.0 in NNW 11 mph 11 mph 78% 0.000 in 0.00 W/m2
01:29 75.0 °F 67.0 °F 30.0 in North 11 mph 11 mph 77% 0.000 in 0.00 W/m2
01:34 75.0 °F 67.0 °F 30.0 in North 8 mph 9 mph 76% 0.000 in 0.00 W/m2
01:39 75.0 °F 66.0 °F 30.0 in North 9 mph 11 mph 76% 0.000 in 0.00 W/m2
01:44 74.0 °F 65.0 °F 30.0 in North 11 mph 12 mph 74% 0.000 in 0.00 W/m2
01:49 74.0 °F 64.0 °F 30.0 in North 13 mph 15 mph 72% 0.000 in 0.00 W/m2
01:54 74.0 °F 64.0 °F 30.0 in North 11 mph 15 mph 71% 0.000 in 0.00 W/m2
01:59 74.0 °F 64.0 °F 30.0 in North 10 mph 11 mph 71% 0.000 in 0.00 W/m2
02:04 73.0 °F 63.0 °F 30.0 in North 8 mph 11 mph 70% 0.000 in 0.00 W/m2
02:09 73.0 °F 63.0 °F 30.0 in NNE 9 mph 9 mph 70% 0.000 in 0.00 W/m2
02:14 73.0 °F 63.0 °F 30.0 in NNE 7 mph 7 mph 70% 0.000 in 0.00 W/m2
02:19 73.0 °F 63.0 °F 30.0 in NNE 5 mph 8 mph 71% 0.000 in 0.00 W/m2
02:24 73.0 °F 63.0 °F 30.0 in NNE 11 mph 12 mph 72% 0.000 in 0.00 W/m2
02:29 72.0 °F 63.0 °F 30.0 in NNE 10 mph 10 mph 73% 0.000 in 0.00 W/m2
02:34 72.0 °F 63.0 °F 30.0 in NNE 6 mph 11 mph 74% 0.000 in 0.00 W/m2
02:39 72.0 °F 63.0 °F 30.0 in NNE 9 mph 9 mph 74% 0.000 in 0.00 W/m2
02:44 71.0 °F 63.0 °F 30.0 in NNE 7 mph 9 mph 75% 0.000 in 0.00 W/m2
02:49 71.0 °F 63.0 °F 30.0 in NNE 7 mph 9 mph 76% 0.000 in 0.00 W/m2
02:54 71.0 °F 63.0 °F 30.0 in NNE 8 mph 9 mph 76% 0.000 in 0.00 W/m2
02:59 71.0 °F 63.0 °F 30.0 in NNE 7 mph 9 mph 77% 0.000 in 0.00 W/m2
03:04 71.0 °F 63.0 °F 30.0 in NNE 6 mph 6 mph 78% 0.000 in 0.00 W/m2
03:09 70.0 °F 63.0 °F 30.0 in NNE 6 mph 7 mph 78% 0.000 in 0.00 W/m2
03:14 70.0 °F 63.0 °F 30.0 in NNE 6 mph 6 mph 78% 0.000 in 0.00 W/m2
03:19 70.0 °F 63.0 °F 30.0 in NNE 6 mph 6 mph 79% 0.000 in 0.00 W/m2
03:24 70.0 °F 63.0 °F 30.0 in NNE 7 mph 9 mph 79% 0.000 in 0.00 W/m2
03:29 69.0 °F 63.0 °F 30.0 in North 8 mph 8 mph 79% 0.000 in 0.00 W/m2
03:34 69.0 °F 62.0 °F 30.0 in NNE 11 mph 11 mph 80% 0.000 in 0.00 W/m2
03:39 69.0 °F 62.0 °F 30.0 in NNE 9 mph 11 mph 80% 0.000 in 0.00 W/m2
03:44 69.0 °F 62.0 °F 30.0 in NNE 8 mph 9 mph 80% 0.000 in 0.00 W/m2
03:49 68.0 °F 62.0 °F 30.0 in NNE 8 mph 10 mph 80% 0.000 in 0.00 W/m2
03:54 68.0 °F 62.0 °F 30.0 in NNE 10 mph 10 mph 80% 0.000 in 0.00 W/m2
03:59 68.0 °F 62.0 °F 30.0 in NNE 10 mph 10 mph 80% 0.000 in 0.00 W/m2
04:04 68.0 °F 61.0 °F 30.0 in NNE 8 mph 10 mph 80% 0.000 in 0.00 W/m2
04:09 68.0 °F 61.0 °F 30.0 in NNE 7 mph 8 mph 80% 0.000 in 0.00 W/m2
04:14 68.0 °F 61.0 °F 30.0 in NNE 9 mph 9 mph 80% 0.000 in 0.00 W/m2
04:19 67.0 °F 61.0 °F 30.0 in NNE 5 mph 9 mph 81% 0.000 in 0.00 W/m2
04:24 67.0 °F 61.0 °F 30.0 in NNE 7 mph 7 mph 81% 0.000 in 0.00 W/m2
04:29 67.0 °F 61.0 °F 30.0 in NE 8 mph 8 mph 81% 0.000 in 0.00 W/m2
04:34 67.0 °F 61.0 °F 30.0 in NNE 5 mph 6 mph 81% 0.000 in 0.00 W/m2
04:39 67.0 °F 61.0 °F 30.1 in NE 7 mph 9 mph 81% 0.000 in 0.00 W/m2
04:44 67.0 °F 61.0 °F 30.1 in NNE 5 mph 5 mph 81% 0.000 in 0.00 W/m2
04:49 67.0 °F 61.0 °F 30.1 in NNE 7 mph 8 mph 81% 0.000 in 0.00 W/m2
04:54 66.0 °F 60.0 °F 30.1 in NE 6 mph 7 mph 81% 0.000 in 0.00 W/m2
04:59 66.0 °F 60.0 °F 30.1 in NE 3 mph 4 mph 81% 0.000 in 0.00 W/m2
05:04 66.0 °F 60.0 °F 30.1 in NE 2 mph 3 mph 81% 0.000 in 0.00 W/m2
05:09 66.0 °F 60.0 °F 30.1 in NE 3 mph 3 mph 81% 0.000 in 0.00 W/m2
05:14 66.0 °F 60.0 °F 30.1 in ENE 2 mph 3 mph 81% 0.000 in 0.00 W/m2
05:19 66.0 °F 60.0 °F 30.1 in NE 3 mph 3 mph 81% 0.000 in 0.00 W/m2
05:24 66.0 °F 60.0 °F 30.1 in NE 3 mph 3 mph 82% 0.000 in 0.00 W/m2
05:29 66.0 °F 60.0 °F 30.1 in NNE 4 mph 4 mph 82% 0.000 in 0.00 W/m2
05:34 65.0 °F 60.0 °F 30.1 in NNE 4 mph 4 mph 82% 0.000 in 0.00 W/m2
05:39 65.0 °F 60.0 °F 30.1 in NNE 4 mph 4 mph 82% 0.000 in 0.00 W/m2
05:44 65.0 °F 59.0 °F 30.1 in North 4 mph 4 mph 82% 0.000 in 0.00 W/m2
05:49 65.0 °F 59.0 °F 30.1 in North 4 mph 4 mph 82% 0.000 in 0.00 W/m2
05:54 65.0 °F 59.0 °F 30.1 in NNE 4 mph 4 mph 83% 0.000 in 0.00 W/m2
05:59 65.0 °F 59.0 °F 30.1 in NNE 4 mph 4 mph 83% 0.000 in 0.00 W/m2
06:04 64.0 °F 59.0 °F 30.1 in NNE 8 mph 8 mph 83% 0.000 in 0.00 W/m2
06:09 64.0 °F 59.0 °F 30.1 in NNE 8 mph 8 mph 84% 0.000 in 0.00 W/m2
06:14 64.0 °F 59.0 °F 30.1 in NNE 8 mph 8 mph 84% 0.000 in 0.00 W/m2
06:19 64.0 °F 59.0 °F 30.1 in NNE 8 mph 8 mph 84% 0.000 in 0.00 W/m2
06:24 64.0 °F 59.0 °F 30.1 in NNE 5 mph 8 mph 84% 0.000 in 0.00 W/m2
06:29 64.0 °F 58.0 °F 30.1 in NNE 8 mph 8 mph 83% 0.000 in 0.00 W/m2
06:34 64.0 °F 58.0 °F 30.1 in NNE 5 mph 5 mph 83% 0.000 in 0.00 W/m2
06:39 63.0 °F 58.0 °F 30.1 in NNE 5 mph 6 mph 83% 0.000 in 0.00 W/m2
06:44 63.0 °F 58.0 °F 30.1 in NNE 6 mph 8 mph 83% 0.000 in 0.00 W/m2
06:49 63.0 °F 58.0 °F 30.1 in NNE 8 mph 8 mph 83% 0.000 in 0.00 W/m2
06:54 63.0 °F 58.0 °F 30.1 in North 9 mph 10 mph 84% 0.000 in 0.00 W/m2
06:59 63.0 °F 58.0 °F 30.1 in NNE 9 mph 9 mph 84% 0.000 in 5.00 W/m2
07:04 63.0 °F 58.0 °F 30.1 in NNE 7 mph 7 mph 84% 0.000 in 9.00 W/m2
07:09 63.0 °F 58.0 °F 30.1 in North 9 mph 9 mph 84% 0.000 in 12.00 W/m2
07:19 63.0 °F 58.0 °F 30.1 in NNE 9 mph 9 mph 84% 0.000 in 18.00 W/m2
07:24 63.0 °F 58.0 °F 30.1 in NNE 8 mph 9 mph 84% 0.000 in 19.00 W/m2
07:29 63.0 °F 59.0 °F 30.1 in NNE 13 mph 13 mph 85% 0.000 in 23.00 W/m2
07:34 63.0 °F 58.0 °F 30.1 in NNE 9 mph 9 mph 84% 0.000 in 26.00 W/m2
07:39 63.0 °F 58.0 °F 30.1 in NNE 11 mph 12 mph 84% 0.000 in 33.00 W/m2
07:44 63.0 °F 58.0 °F 30.1 in NNE 11 mph 11 mph 84% 0.000 in 37.00 W/m2
07:49 63.0 °F 58.0 °F 30.1 in North 13 mph 15 mph 84% 0.000 in 37.00 W/m2
07:54 63.0 °F 58.0 °F 30.1 in NNE 10 mph 10 mph 84% 0.000 in 39.00 W/m2
07:59 63.0 °F 58.0 °F 30.1 in NNE 13 mph 14 mph 84% 0.000 in 42.00 W/m2
08:04 63.0 °F 58.0 °F 30.1 in NNE 13 mph 14 mph 84% 0.000 in 58.00 W/m2
08:09 63.0 °F 58.0 °F 30.1 in NNE 13 mph 13 mph 83% 0.000 in 58.00 W/m2
08:14 63.0 °F 57.0 °F 30.1 in NNE 14 mph 16 mph 83% 0.000 in 88.00 W/m2
08:19 63.0 °F 57.0 °F 30.1 in North 12 mph 16 mph 83% 0.000 in 107.00 W/m2
08:24 62.0 °F 57.0 °F 30.1 in North 15 mph 15 mph 83% 0.000 in 102.00 W/m2
08:29 62.0 °F 58.0 °F 30.1 in North 9 mph 10 mph 84% 0.000 in 128.00 W/m2
08:34 62.0 °F 58.0 °F 30.2 in NNE 12 mph 12 mph 84% 0.000 in 120.00 W/m2
08:39 62.0 °F 57.0 °F 30.2 in North 15 mph 15 mph 83% 0.000 in 128.00 W/m2
08:44 62.0 °F 57.0 °F 30.2 in North 15 mph 15 mph 83% 0.000 in 132.00 W/m2
08:49 62.0 °F 57.0 °F 30.2 in North 13 mph 14 mph 83% 0.000 in 142.00 W/m2
08:54 62.0 °F 57.0 °F 30.2 in North 18 mph 18 mph 82% 0.000 in 144.00 W/m2
08:59 62.0 °F 56.0 °F 30.2 in North 15 mph 18 mph 82% 0.000 in 181.00 W/m2
09:04 62.0 °F 56.0 °F 30.2 in NNE 14 mph 15 mph 81% 0.000 in 264.00 W/m2
09:09 62.0 °F 56.0 °F 30.2 in North 13 mph 14 mph 81% 0.000 in 232.00 W/m2
09:14 62.0 °F 56.0 °F 30.2 in North 15 mph 17 mph 80% 0.000 in 362.00 W/m2
09:19 63.0 °F 56.0 °F 30.2 in North 14 mph 17 mph 80% 0.000 in 404.00 W/m2
09:24 63.0 °F 56.0 °F 30.2 in North 14 mph 14 mph 79% 0.000 in 415.00 W/m2
09:29 64.0 °F 57.0 °F 30.2 in NNE 14 mph 15 mph 79% 0.000 in 464.00 W/m2
09:34 64.0 °F 57.0 °F 30.2 in NNE 13 mph 14 mph 78% 0.000 in 482.00 W/m2
09:39 64.0 °F 57.0 °F 30.2 in North 10 mph 10 mph 77% 0.000 in 506.00 W/m2
09:44 65.0 °F 57.0 °F 30.2 in NNE 14 mph 14 mph 77% 0.000 in 531.00 W/m2
09:49 65.0 °F 57.0 °F 30.2 in North 14 mph 14 mph 76% 0.000 in 550.00 W/m2
09:54 66.0 °F 57.0 °F 30.2 in North 11 mph 14 mph 74% 0.000 in 564.00 W/m2
09:59 66.0 °F 58.0 °F 30.2 in NNE 13 mph 13 mph 74% 0.000 in 580.00 W/m2
10:04 67.0 °F 57.0 °F 30.2 in North 13 mph 14 mph 73% 0.000 in 603.00 W/m2
10:09 67.0 °F 58.0 °F 30.2 in NNW 14 mph 14 mph 72% 0.000 in 621.00 W/m2
10:14 67.0 °F 58.0 °F 30.2 in NNW 12 mph 13 mph 72% 0.000 in 631.00 W/m2
10:19 68.0 °F 58.0 °F 30.2 in North 18 mph 18 mph 72% 0.000 in 649.00 W/m2
10:24 68.0 °F 58.0 °F 30.2 in North 14 mph 14 mph 71% 0.000 in 663.00 W/m2
10:29 68.0 °F 58.0 °F 30.2 in North 10 mph 11 mph 71% 0.000 in 684.00 W/m2
10:34 69.0 °F 58.0 °F 30.2 in North 13 mph 13 mph 70% 0.000 in 694.00 W/m2
10:39 69.0 °F 59.0 °F 30.2 in NNW 10 mph 11 mph 70% 0.000 in 708.00 W/m2
10:44 69.0 °F 59.0 °F 30.2 in NNE 14 mph 15 mph 69% 0.000 in 724.00 W/m2
10:49 70.0 °F 59.0 °F 30.2 in NNE 11 mph 13 mph 68% 0.000 in 737.00 W/m2
10:54 70.0 °F 59.0 °F 30.2 in NNE 13 mph 13 mph 68% 0.000 in 752.00 W/m2
10:59 70.0 °F 59.0 °F 30.2 in North 14 mph 14 mph 67% 0.000 in 765.00 W/m2
11:04 71.0 °F 59.0 °F 30.2 in North 11 mph 14 mph 67% 0.000 in 775.00 W/m2
11:09 71.0 °F 59.0 °F 30.2 in North 13 mph 15 mph 66% 0.000 in 789.00 W/m2
11:14 71.0 °F 59.0 °F 30.2 in North 16 mph 16 mph 65% 0.000 in 802.00 W/m2
11:19 71.0 °F 59.0 °F 30.2 in North 11 mph 12 mph 65% 0.000 in 812.00 W/m2
11:24 72.0 °F 59.0 °F 30.2 in North 15 mph 15 mph 64% 0.000 in 823.00 W/m2
11:29 72.0 °F 59.0 °F 30.2 in NNE 13 mph 16 mph 64% 0.000 in 835.00 W/m2
11:34 72.0 °F 59.0 °F 30.2 in North 14 mph 15 mph 64% 0.000 in 842.00 W/m2
11:39 72.0 °F 59.0 °F 30.2 in North 20 mph 20 mph 63% 0.000 in 854.00 W/m2
11:44 72.0 °F 59.0 °F 30.2 in NNW 15 mph 17 mph 63% 0.000 in 863.00 W/m2
11:49 72.0 °F 59.0 °F 30.2 in North 17 mph 17 mph 63% 0.000 in 872.00 W/m2
11:54 73.0 °F 59.0 °F 30.2 in North 12 mph 16 mph 63% 0.000 in 879.00 W/m2
11:59 73.0 °F 60.0 °F 30.2 in NNE 15 mph 15 mph 63% 0.000 in 888.00 W/m2
12:04 73.0 °F 59.0 °F 30.2 in North 16 mph 18 mph 61% 0.000 in 895.00 W/m2
12:09 73.0 °F 59.0 °F 30.2 in NNE 15 mph 16 mph 62% 0.000 in 904.00 W/m2
12:14 73.0 °F 59.0 °F 30.2 in NNE 11 mph 15 mph 61% 0.000 in 914.00 W/m2
12:19 74.0 °F 60.0 °F 30.2 in NNE 14 mph 14 mph 62% 0.000 in 916.00 W/m2
12:24 74.0 °F 60.0 °F 30.2 in NNE 14 mph 14 mph 61% 0.000 in 923.00 W/m2
12:29 74.0 °F 59.0 °F 30.2 in North 13 mph 14 mph 60% 0.000 in 925.00 W/m2
12:34 74.0 °F 60.0 °F 30.2 in North 11 mph 15 mph 61% 0.000 in 932.00 W/m2
12:39 74.0 °F 60.0 °F 30.2 in North 12 mph 15 mph 60% 0.000 in 935.00 W/m2
12:44 75.0 °F 60.0 °F 30.2 in NNE 12 mph 14 mph 60% 0.000 in 939.00 W/m2
12:49 75.0 °F 61.0 °F 30.2 in North 10 mph 10 mph 61% 0.000 in 946.00 W/m2
12:54 75.0 °F 60.0 °F 30.2 in North 16 mph 16 mph 60% 0.000 in 946.00 W/m2
12:59 75.0 °F 60.0 °F 30.2 in NNE 11 mph 16 mph 58% 0.000 in 947.00 W/m2
13:04 75.0 °F 60.0 °F 30.2 in NNE 11 mph 12 mph 59% 0.000 in 954.00 W/m2
13:09 75.0 °F 60.0 °F 30.2 in NNE 14 mph 15 mph 58% 0.000 in 954.00 W/m2
13:14 76.0 °F 60.0 °F 30.2 in NNE 12 mph 14 mph 59% 0.000 in 956.00 W/m2
13:19 76.0 °F 59.0 °F 30.2 in NNE 14 mph 15 mph 57% 0.000 in 956.00 W/m2
13:24 76.0 °F 60.0 °F 30.2 in North 14 mph 16 mph 59% 0.000 in 953.00 W/m2
13:29 76.0 °F 59.0 °F 30.2 in NNE 13 mph 16 mph 57% 0.000 in 956.00 W/m2
13:34 76.0 °F 60.0 °F 30.2 in NNE 9 mph 11 mph 57% 0.000 in 956.00 W/m2
13:39 77.0 °F 60.0 °F 30.2 in North 13 mph 15 mph 57% 0.000 in 956.00 W/m2
13:44 77.0 °F 60.0 °F 30.2 in North 12 mph 15 mph 57% 0.000 in 953.00 W/m2
13:49 77.0 °F 60.0 °F 30.2 in North 10 mph 13 mph 56% 0.000 in 953.00 W/m2
13:54 77.0 °F 60.0 °F 30.2 in NNE 9 mph 13 mph 55% 0.000 in 949.00 W/m2
13:59 78.0 °F 60.0 °F 30.2 in NNE 14 mph 14 mph 55% 0.000 in 947.00 W/m2
14:04 78.0 °F 60.0 °F 30.2 in North 9 mph 12 mph 55% 0.000 in 944.00 W/m2
14:09 78.0 °F 61.0 °F 30.2 in NNE 14 mph 14 mph 55% 0.000 in 939.00 W/m2
14:14 78.0 °F 60.0 °F 30.2 in NNE 12 mph 13 mph 54% 0.000 in 937.00 W/m2
14:19 78.0 °F 60.0 °F 30.2 in North 15 mph 16 mph 54% 0.000 in 928.00 W/m2
14:24 78.0 °F 60.0 °F 30.2 in North 12 mph 14 mph 53% 0.000 in 923.00 W/m2
14:29 79.0 °F 60.0 °F 30.2 in North 16 mph 16 mph 53% 0.000 in 919.00 W/m2
14:34 79.0 °F 61.0 °F 30.2 in NNE 11 mph 16 mph 54% 0.000 in 914.00 W/m2
14:39 79.0 °F 60.0 °F 30.2 in North 12 mph 15 mph 53% 0.000 in 904.00 W/m2
14:44 79.0 °F 60.0 °F 30.2 in North 12 mph 15 mph 53% 0.000 in 902.00 W/m2
14:49 79.0 °F 61.0 °F 30.2 in NNE 8 mph 10 mph 54% 0.000 in 898.00 W/m2
14:54 79.0 °F 60.0 °F 30.2 in North 12 mph 12 mph 52% 0.000 in 886.00 W/m2
14:59 80.0 °F 60.0 °F 30.2 in NNE 11 mph 12 mph 52% 0.000 in 879.00 W/m2
15:04 80.0 °F 61.0 °F 30.2 in NNE 12 mph 13 mph 53% 0.000 in 870.00 W/m2
15:09 80.0 °F 62.0 °F 30.2 in NE 8 mph 13 mph 56% 0.000 in 863.00 W/m2
15:14 80.0 °F 62.0 °F 30.2 in North 12 mph 13 mph 56% 0.000 in 849.00 W/m2
15:19 80.0 °F 62.0 °F 30.2 in NNE 10 mph 11 mph 56% 0.000 in 844.00 W/m2
15:24 80.0 °F 62.0 °F 30.2 in NNE 10 mph 11 mph 56% 0.000 in 828.00 W/m2
15:29 80.0 °F 63.0 °F 30.2 in North 13 mph 14 mph 56% 0.000 in 819.00 W/m2
15:34 80.0 °F 62.0 °F 30.2 in NNE 13 mph 13 mph 55% 0.000 in 803.00 W/m2
15:39 80.0 °F 62.0 °F 30.2 in NNE 9 mph 11 mph 55% 0.000 in 796.00 W/m2
15:44 80.0 °F 63.0 °F 30.2 in North 13 mph 14 mph 56% 0.000 in 784.00 W/m2
15:49 80.0 °F 63.0 °F 30.2 in North 12 mph 12 mph 55% 0.000 in 773.00 W/m2
15:54 80.0 °F 63.0 °F 30.2 in NNE 10 mph 12 mph 55% 0.000 in 754.00 W/m2
15:59 80.0 °F 63.0 °F 30.2 in NNE 12 mph 12 mph 55% 0.000 in 745.00 W/m2
16:04 80.0 °F 63.0 °F 30.2 in North 13 mph 14 mph 55% 0.000 in 729.00 W/m2
16:09 80.0 °F 63.0 °F 30.2 in NNE 14 mph 14 mph 55% 0.000 in 717.00 W/m2
16:14 80.0 °F 62.0 °F 30.2 in North 12 mph 14 mph 55% 0.000 in 705.00 W/m2
16:19 80.0 °F 62.0 °F 30.2 in NNE 14 mph 14 mph 55% 0.000 in 687.00 W/m2
16:24 80.0 °F 62.0 °F 30.2 in NNE 10 mph 13 mph 55% 0.000 in 671.00 W/m2
16:29 80.0 °F 63.0 °F 30.2 in NNE 13 mph 14 mph 55% 0.000 in 661.00 W/m2
16:34 80.0 °F 63.0 °F 30.2 in NNE 13 mph 14 mph 55% 0.000 in 640.00 W/m2
16:39 80.0 °F 62.0 °F 30.2 in NNE 10 mph 13 mph 54% 0.000 in 629.00 W/m2
16:44 80.0 °F 63.0 °F 30.2 in North 13 mph 13 mph 55% 0.000 in 612.00 W/m2
16:49 80.0 °F 63.0 °F 30.2 in North 14 mph 15 mph 55% 0.000 in 598.00 W/m2
16:54 80.0 °F 62.0 °F 30.2 in NNE 14 mph 15 mph 54% 0.000 in 580.00 W/m2
16:59 80.0 °F 62.0 °F 30.2 in NNE 11 mph 11 mph 54% 0.000 in 566.00 W/m2
17:04 80.0 °F 62.0 °F 30.2 in NNE 11 mph 11 mph 54% 0.000 in 547.00 W/m2
17:09 80.0 °F 62.0 °F 30.2 in NNE 10 mph 11 mph 54% 0.000 in 529.00 W/m2
17:14 80.0 °F 62.0 °F 30.2 in North 13 mph 13 mph 54% 0.000 in 513.00 W/m2
17:19 80.0 °F 61.0 °F 30.2 in NE 13 mph 13 mph 52% 0.000 in 501.00 W/m2
17:24 80.0 °F 60.0 °F 30.2 in NE 8 mph 10 mph 51% 0.000 in 482.00 W/m2
17:29 80.0 °F 61.0 °F 30.2 in NE 8 mph 9 mph 52% 0.000 in 461.00 W/m2
17:34 80.0 °F 61.0 °F 30.2 in ENE 8 mph 9 mph 52% 0.000 in 441.00 W/m2
17:39 80.0 °F 60.0 °F 30.2 in NNE 9 mph 9 mph 51% 0.000 in 427.00 W/m2
17:44 80.0 °F 60.0 °F 30.1 in NNE 10 mph 11 mph 50% 0.000 in 408.00 W/m2
17:49 80.0 °F 60.0 °F 30.1 in NNE 13 mph 14 mph 50% 0.000 in 390.00 W/m2
17:54 80.0 °F 60.0 °F 30.1 in ENE 6 mph 9 mph 50% 0.000 in 371.00 W/m2
17:59 80.0 °F 60.0 °F 30.1 in NE 9 mph 10 mph 50% 0.000 in 352.00 W/m2
18:04 80.0 °F 59.0 °F 30.1 in NE 10 mph 10 mph 49% 0.000 in 334.00 W/m2
18:09 80.0 °F 59.0 °F 30.1 in NNE 8 mph 8 mph 49% 0.000 in 318.00 W/m2
18:14 80.0 °F 59.0 °F 30.1 in NE 7 mph 8 mph 49% 0.000 in 295.00 W/m2
18:19 80.0 °F 59.0 °F 30.1 in ENE 8 mph 10 mph 48% 0.000 in 278.00 W/m2
18:24 80.0 °F 58.0 °F 30.1 in NE 5 mph 8 mph 48% 0.000 in 258.00 W/m2
18:29 80.0 °F 59.0 °F 30.1 in ENE 8 mph 10 mph 49% 0.000 in 241.00 W/m2
18:34 79.0 °F 59.0 °F 30.1 in NE 11 mph 11 mph 50% 0.000 in 221.00 W/m2
18:39 79.0 °F 59.0 °F 30.1 in NE 7 mph 11 mph 50% 0.000 in 200.00 W/m2
18:44 79.0 °F 59.0 °F 30.1 in ENE 8 mph 8 mph 50% 0.000 in 186.00 W/m2
18:49 78.0 °F 58.0 °F 30.2 in NNE 10 mph 13 mph 50% 0.000 in 162.00 W/m2
18:54 78.0 °F 58.0 °F 30.1 in NNE 8 mph 8 mph 50% 0.000 in 49.00 W/m2
18:59 78.0 °F 57.0 °F 30.2 in NNE 10 mph 11 mph 50% 0.000 in 44.00 W/m2
19:04 77.0 °F 57.0 °F 30.2 in NE 7 mph 10 mph 50% 0.000 in 40.00 W/m2
19:09 77.0 °F 57.0 °F 30.2 in NE 9 mph 10 mph 50% 0.000 in 35.00 W/m2
19:14 76.0 °F 57.0 °F 30.2 in NE 11 mph 12 mph 51% 0.000 in 32.00 W/m2
19:19 76.0 °F 56.0 °F 30.2 in NNE 9 mph 12 mph 51% 0.000 in 28.00 W/m2
19:24 76.0 °F 57.0 °F 30.2 in NE 9 mph 10 mph 52% 0.000 in 25.00 W/m2
19:29 75.0 °F 56.0 °F 30.2 in NE 6 mph 9 mph 52% 0.000 in 21.00 W/m2
19:34 75.0 °F 56.0 °F 30.2 in NE 8 mph 10 mph 52% 0.000 in 18.00 W/m2
19:39 75.0 °F 56.0 °F 30.2 in NE 6 mph 7 mph 53% 0.000 in 14.00 W/m2
19:44 74.0 °F 56.0 °F 30.2 in NE 4 mph 7 mph 53% 0.000 in 11.00 W/m2
19:49 74.0 °F 56.0 °F 30.2 in NE 4 mph 7 mph 54% 0.000 in 7.00 W/m2
19:54 74.0 °F 56.0 °F 30.2 in NNE 5 mph 7 mph 54% 0.000 in 0.00 W/m2
19:59 74.0 °F 57.0 °F 30.2 in NE 4 mph 4 mph 55% 0.000 in 0.00 W/m2
20:04 73.0 °F 56.0 °F 30.2 in NE 3 mph 4 mph 55% 0.000 in 0.00 W/m2
20:09 73.0 °F 56.0 °F 30.2 in ENE 3 mph 4 mph 56% 0.000 in 0.00 W/m2
20:14 73.0 °F 57.0 °F 30.2 in ENE 2 mph 3 mph 57% 0.000 in 0.00 W/m2
20:19 73.0 °F 57.0 °F 30.2 in ENE 4 mph 4 mph 57% 0.000 in 0.00 W/m2
20:24 72.0 °F 56.0 °F 30.2 in ENE 3 mph 5 mph 57% 0.000 in 0.00 W/m2
20:29 72.0 °F 56.0 °F 30.2 in East 4 mph 5 mph 57% 0.000 in 0.00 W/m2
20:34 72.0 °F 56.0 °F 30.2 in NE 4 mph 4 mph 57% 0.000 in 0.00 W/m2
20:39 71.0 °F 55.0 °F 30.2 in NE 8 mph 8 mph 57% 0.000 in 0.00 W/m2
20:44 71.0 °F 55.0 °F 30.2 in NE 3 mph 8 mph 57% 0.000 in 0.00 W/m2
20:49 71.0 °F 55.0 °F 30.2 in NE 5 mph 5 mph 57% 0.000 in 0.00 W/m2
20:54 71.0 °F 55.0 °F 30.2 in ENE 4 mph 4 mph 57% 0.000 in 0.00 W/m2
20:59 70.0 °F 54.0 °F 30.2 in NE 4 mph 6 mph 57% 0.000 in 0.00 W/m2
21:04 70.0 °F 54.0 °F 30.2 in NE 4 mph 4 mph 57% 0.000 in 0.00 W/m2
21:09 70.0 °F 54.0 °F 30.2 in NE 6 mph 6 mph 57% 0.000 in 0.00 W/m2
21:14 70.0 °F 54.0 °F 30.2 in NE 4 mph 6 mph 57% 0.000 in 0.00 W/m2
21:19 70.0 °F 54.0 °F 30.2 in ENE 2 mph 3 mph 58% 0.000 in 0.00 W/m2
21:24 69.0 °F 54.0 °F 30.2 in NE 3 mph 4 mph 58% 0.000 in 0.00 W/m2
21:29 69.0 °F 54.0 °F 30.2 in NE 4 mph 4 mph 59% 0.000 in 0.00 W/m2
21:34 69.0 °F 54.0 °F 30.2 in NE 4 mph 6 mph 59% 0.000 in 0.00 W/m2
21:39 69.0 °F 54.0 °F 30.2 in NE 4 mph 5 mph 60% 0.000 in 0.00 W/m2
21:44 68.0 °F 54.0 °F 30.2 in NE 6 mph 6 mph 60% 0.000 in 0.00 W/m2
21:49 68.0 °F 54.0 °F 30.2 in NE 5 mph 5 mph 60% 0.000 in 0.00 W/m2
21:54 68.0 °F 54.0 °F 30.2 in NE 4 mph 5 mph 61% 0.000 in 0.00 W/m2
21:59 68.0 °F 54.0 °F 30.2 in NE 4 mph 5 mph 61% 0.000 in 0.00 W/m2
22:04 68.0 °F 54.0 °F 30.2 in NE 5 mph 5 mph 61% 0.000 in 0.00 W/m2
22:09 68.0 °F 54.0 °F 30.2 in NE 5 mph 6 mph 61% 0.000 in 0.00 W/m2
22:14 67.0 °F 53.0 °F 30.2 in NE 5 mph 6 mph 61% 0.000 in 0.00 W/m2
22:19 67.0 °F 53.0 °F 30.2 in NE 6 mph 6 mph 61% 0.000 in 0.00 W/m2
22:24 67.0 °F 53.0 °F 30.2 in NE 9 mph 9 mph 61% 0.000 in 0.00 W/m2
22:29 67.0 °F 53.0 °F 30.2 in NE 5 mph 9 mph 62% 0.000 in 0.00 W/m2
22:34 67.0 °F 53.0 °F 30.2 in NE 5 mph 5 mph 62% 0.000 in 0.00 W/m2
22:39 67.0 °F 53.0 °F 30.2 in NE 5 mph 7 mph 62% 0.000 in 0.00 W/m2
22:44 67.0 °F 53.0 °F 30.2 in NE 3 mph 5 mph 62% 0.000 in 0.00 W/m2
22:49 66.0 °F 53.0 °F 30.2 in ENE 4 mph 8 mph 63% 0.000 in 0.00 W/m2
22:54 66.0 °F 53.0 °F 30.2 in ENE 5 mph 5 mph 63% 0.000 in 0.00 W/m2
22:59 66.0 °F 53.0 °F 30.2 in ENE 6 mph 6 mph 63% 0.000 in 0.00 W/m2
23:04 66.0 °F 53.0 °F 30.2 in NE 7 mph 7 mph 64% 0.000 in 0.00 W/m2
23:09 66.0 °F 53.0 °F 30.2 in NNE 8 mph 8 mph 64% 0.000 in 0.00 W/m2
23:14 66.0 °F 53.0 °F 30.2 in NE 5 mph 5 mph 64% 0.000 in 0.00 W/m2
23:19 66.0 °F 53.0 °F 30.2 in NE 4 mph 6 mph 65% 0.000 in 0.00 W/m2
23:24 65.0 °F 53.0 °F 30.2 in NE 5 mph 5 mph 65% 0.000 in 0.00 W/m2
23:29 65.0 °F 53.0 °F 30.2 in NE 8 mph 8 mph 65% 0.000 in 0.00 W/m2
23:34 65.0 °F 53.0 °F 30.2 in NE 4 mph 5 mph 65% 0.000 in 0.00 W/m2
23:39 65.0 °F 53.0 °F 30.2 in NE 8 mph 8 mph 66% 0.000 in 0.00 W/m2
23:44 65.0 °F 53.0 °F 30.2 in NE 4 mph 5 mph 66% 0.000 in 0.00 W/m2
23:49 65.0 °F 53.0 °F 30.2 in NE 4 mph 5 mph 66% 0.000 in 0.00 W/m2
23:54 65.0 °F 53.0 °F 30.2 in ENE 4 mph 4 mph 67% 0.000 in 0.00 W/m2
23:59 64.0 °F 53.0 °F 30.2 in NE 4 mph 4 mph 67% 0.000 in 0.00 W/m2
Villages of Bridgestone, Spring, TX USA
Compliments of Weather Underground - 4 mb